sensor_id;sensor_type;location;lat;lon;timestamp;P1;durP1;ratioP1;P2;durP2;ratioP2
52668;SDS011;59898;52.786;6.892;2023-01-16T00:00:20;10.23;;;2.92;;
52668;SDS011;59898;52.786;6.892;2023-01-16T00:03:41;8.00;;;3.40;;
52668;SDS011;59898;52.786;6.892;2023-01-16T00:07:02;8.48;;;3.00;;
52668;SDS011;59898;52.786;6.892;2023-01-16T00:10:23;7.72;;;3.40;;
52668;SDS011;59898;52.786;6.892;2023-01-16T00:13:44;5.80;;;2.90;;
52668;SDS011;59898;52.786;6.892;2023-01-16T00:17:04;8.07;;;3.00;;
52668;SDS011;59898;52.786;6.892;2023-01-16T00:20:25;3.58;;;2.55;;
52668;SDS011;59898;52.786;6.892;2023-01-16T00:23:46;8.45;;;3.38;;
52668;SDS011;59898;52.786;6.892;2023-01-16T00:27:07;5.85;;;2.78;;
52668;SDS011;59898;52.786;6.892;2023-01-16T00:30:28;7.82;;;2.47;;
52668;SDS011;59898;52.786;6.892;2023-01-16T00:33:49;4.47;;;2.80;;
52668;SDS011;59898;52.786;6.892;2023-01-16T00:37:09;5.65;;;2.30;;
52668;SDS011;59898;52.786;6.892;2023-01-16T00:40:30;4.30;;;2.30;;
52668;SDS011;59898;52.786;6.892;2023-01-16T00:43:51;9.25;;;3.17;;
52668;SDS011;59898;52.786;6.892;2023-01-16T00:47:12;3.38;;;2.08;;
52668;SDS011;59898;52.786;6.892;2023-01-16T00:50:32;3.53;;;2.70;;
52668;SDS011;59898;52.786;6.892;2023-01-16T00:53:53;5.00;;;2.53;;
52668;SDS011;59898;52.786;6.892;2023-01-16T00:57:14;9.82;;;2.95;;
52668;SDS011;59898;52.786;6.892;2023-01-16T01:00:35;5.78;;;3.10;;
52668;SDS011;59898;52.786;6.892;2023-01-16T01:03:58;4.88;;;2.47;;
52668;SDS011;59898;52.786;6.892;2023-01-16T01:07:19;7.60;;;2.35;;
52668;SDS011;59898;52.786;6.892;2023-01-16T01:10:40;6.80;;;2.60;;
52668;SDS011;59898;52.786;6.892;2023-01-16T01:14:01;7.78;;;2.78;;
52668;SDS011;59898;52.786;6.892;2023-01-16T01:17:21;4.25;;;2.22;;
52668;SDS011;59898;52.786;6.892;2023-01-16T01:20:42;6.60;;;2.67;;
52668;SDS011;59898;52.786;6.892;2023-01-16T01:24:03;4.75;;;2.38;;
52668;SDS011;59898;52.786;6.892;2023-01-16T01:27:24;6.03;;;2.28;;
52668;SDS011;59898;52.786;6.892;2023-01-16T01:30:44;12.25;;;2.72;;
52668;SDS011;59898;52.786;6.892;2023-01-16T01:34:06;5.13;;;2.65;;
52668;SDS011;59898;52.786;6.892;2023-01-16T01:37:27;3.15;;;1.85;;
52668;SDS011;59898;52.786;6.892;2023-01-16T01:40:47;6.28;;;2.42;;
52668;SDS011;59898;52.786;6.892;2023-01-16T01:48:24;10.88;;;2.75;;
52668;SDS011;59898;52.786;6.892;2023-01-16T01:51:51;7.43;;;2.05;;
52668;SDS011;59898;52.786;6.892;2023-01-16T01:55:13;8.65;;;2.80;;
52668;SDS011;59898;52.786;6.892;2023-01-16T01:58:35;7.15;;;2.72;;
52668;SDS011;59898;52.786;6.892;2023-01-16T02:01:57;6.97;;;2.40;;
52668;SDS011;59898;52.786;6.892;2023-01-16T02:05:23;8.25;;;3.38;;
52668;SDS011;59898;52.786;6.892;2023-01-16T02:08:50;6.68;;;2.33;;
52668;SDS011;59898;52.786;6.892;2023-01-16T02:12:14;7.32;;;2.20;;
52668;SDS011;59898;52.786;6.892;2023-01-16T02:15:37;2.92;;;2.00;;
52668;SDS011;59898;52.786;6.892;2023-01-16T02:33:40;7.13;;;3.05;;
52668;SDS011;59898;52.786;6.892;2023-01-16T02:40:52;4.15;;;2.22;;
52668;SDS011;59898;52.786;6.892;2023-01-16T02:55:15;5.32;;;3.63;;
52668;SDS011;59898;52.786;6.892;2023-01-16T02:58:45;4.18;;;2.60;;
52668;SDS011;59898;52.786;6.892;2023-01-16T03:02:07;7.25;;;2.47;;
52668;SDS011;59898;52.786;6.892;2023-01-16T03:05:31;3.65;;;2.22;;
52668;SDS011;59898;52.786;6.892;2023-01-16T03:16:26;6.05;;;2.60;;
52668;SDS011;59898;52.786;6.892;2023-01-16T03:23:54;4.88;;;2.85;;
52668;SDS011;59898;52.786;6.892;2023-01-16T03:31:01;3.70;;;2.50;;
52668;SDS011;59898;52.786;6.892;2023-01-16T03:34:46;6.53;;;3.30;;
52668;SDS011;59898;52.786;6.892;2023-01-16T03:38:32;6.82;;;3.28;;
52668;SDS011;59898;52.786;6.892;2023-01-16T03:41:57;8.98;;;3.80;;
52668;SDS011;59898;52.786;6.892;2023-01-16T03:45:25;7.00;;;4.10;;
52668;SDS011;59898;52.786;6.892;2023-01-16T03:49:02;4.13;;;3.03;;
52668;SDS011;59898;52.786;6.892;2023-01-16T03:52:30;6.28;;;3.90;;
52668;SDS011;59898;52.786;6.892;2023-01-16T03:59:31;8.63;;;5.70;;
52668;SDS011;59898;52.786;6.892;2023-01-16T04:02:56;7.65;;;5.47;;
52668;SDS011;59898;52.786;6.892;2023-01-16T04:06:30;8.80;;;6.05;;
52668;SDS011;59898;52.786;6.892;2023-01-16T04:09:57;8.10;;;5.15;;
52668;SDS011;59898;52.786;6.892;2023-01-16T04:13:21;9.10;;;7.10;;
52668;SDS011;59898;52.786;6.892;2023-01-16T04:16:48;9.13;;;7.03;;
52668;SDS011;59898;52.786;6.892;2023-01-16T04:20:11;9.03;;;7.47;;
52668;SDS011;59898;52.786;6.892;2023-01-16T04:23:33;10.85;;;7.07;;
52668;SDS011;59898;52.786;6.892;2023-01-16T04:26:54;11.50;;;8.73;;
52668;SDS011;59898;52.786;6.892;2023-01-16T04:30:15;12.95;;;9.57;;
52668;SDS011;59898;52.786;6.892;2023-01-16T04:33:36;15.50;;;9.57;;
52668;SDS011;59898;52.786;6.892;2023-01-16T04:36:56;12.63;;;8.60;;
52668;SDS011;59898;52.786;6.892;2023-01-16T04:40:17;13.68;;;8.85;;
52668;SDS011;59898;52.786;6.892;2023-01-16T04:43:38;15.77;;;9.32;;
52668;SDS011;59898;52.786;6.892;2023-01-16T04:46:59;15.23;;;8.93;;
52668;SDS011;59898;52.786;6.892;2023-01-16T04:50:19;13.27;;;8.68;;
52668;SDS011;59898;52.786;6.892;2023-01-16T04:53:40;11.25;;;7.65;;
52668;SDS011;59898;52.786;6.892;2023-01-16T04:57:01;14.02;;;8.98;;
52668;SDS011;59898;52.786;6.892;2023-01-16T05:00:22;8.32;;;6.88;;
52668;SDS011;59898;52.786;6.892;2023-01-16T05:03:42;8.65;;;6.18;;
52668;SDS011;59898;52.786;6.892;2023-01-16T05:07:03;12.77;;;7.38;;
52668;SDS011;59898;52.786;6.892;2023-01-16T05:10:24;11.98;;;6.80;;
52668;SDS011;59898;52.786;6.892;2023-01-16T05:13:44;11.00;;;6.50;;
52668;SDS011;59898;52.786;6.892;2023-01-16T05:17:05;11.80;;;6.45;;
52668;SDS011;59898;52.786;6.892;2023-01-16T05:20:26;11.07;;;6.00;;
52668;SDS011;59898;52.786;6.892;2023-01-16T05:23:46;11.75;;;5.75;;
52668;SDS011;59898;52.786;6.892;2023-01-16T05:27:07;15.32;;;7.70;;
52668;SDS011;59898;52.786;6.892;2023-01-16T05:30:28;17.08;;;5.65;;
52668;SDS011;59898;52.786;6.892;2023-01-16T05:33:49;10.38;;;5.95;;
52668;SDS011;59898;52.786;6.892;2023-01-16T05:37:09;8.60;;;4.97;;
52668;SDS011;59898;52.786;6.892;2023-01-16T05:40:30;7.25;;;5.28;;
52668;SDS011;59898;52.786;6.892;2023-01-16T05:43:51;8.50;;;6.05;;
52668;SDS011;59898;52.786;6.892;2023-01-16T05:47:11;11.75;;;6.07;;
52668;SDS011;59898;52.786;6.892;2023-01-16T05:50:32;11.68;;;5.72;;
52668;SDS011;59898;52.786;6.892;2023-01-16T05:53:53;12.70;;;5.78;;
52668;SDS011;59898;52.786;6.892;2023-01-16T05:57:13;11.48;;;5.18;;
52668;SDS011;59898;52.786;6.892;2023-01-16T06:00:34;9.77;;;5.50;;
52668;SDS011;59898;52.786;6.892;2023-01-16T06:03:55;8.05;;;5.55;;
52668;SDS011;59898;52.786;6.892;2023-01-16T06:07:15;9.85;;;4.88;;
52668;SDS011;59898;52.786;6.892;2023-01-16T06:10:36;8.35;;;4.82;;
52668;SDS011;59898;52.786;6.892;2023-01-16T06:13:57;11.85;;;5.10;;
52668;SDS011;59898;52.786;6.892;2023-01-16T06:17:23;8.60;;;4.55;;
52668;SDS011;59898;52.786;6.892;2023-01-16T06:20:43;9.23;;;6.93;;
52668;SDS011;59898;52.786;6.892;2023-01-16T06:24:04;16.33;;;7.30;;
52668;SDS011;59898;52.786;6.892;2023-01-16T06:27:25;10.50;;;6.25;;
52668;SDS011;59898;52.786;6.892;2023-01-16T06:30:49;11.55;;;6.28;;
52668;SDS011;59898;52.786;6.892;2023-01-16T06:34:12;13.80;;;6.25;;
52668;SDS011;59898;52.786;6.892;2023-01-16T06:37:32;10.77;;;5.75;;
52668;SDS011;59898;52.786;6.892;2023-01-16T06:40:53;9.63;;;6.32;;
52668;SDS011;59898;52.786;6.892;2023-01-16T06:44:16;8.10;;;5.30;;
52668;SDS011;59898;52.786;6.892;2023-01-16T06:47:36;8.77;;;4.78;;
52668;SDS011;59898;52.786;6.892;2023-01-16T06:50:57;9.15;;;5.75;;
52668;SDS011;59898;52.786;6.892;2023-01-16T06:54:21;9.18;;;5.25;;
52668;SDS011;59898;52.786;6.892;2023-01-16T06:57:41;6.95;;;5.18;;
52668;SDS011;59898;52.786;6.892;2023-01-16T07:01:02;9.30;;;5.63;;
52668;SDS011;59898;52.786;6.892;2023-01-16T07:04:23;9.93;;;4.68;;
52668;SDS011;59898;52.786;6.892;2023-01-16T07:07:43;8.07;;;4.85;;
52668;SDS011;59898;52.786;6.892;2023-01-16T07:11:04;9.68;;;4.70;;
52668;SDS011;59898;52.786;6.892;2023-01-16T07:14:25;12.88;;;5.70;;
52668;SDS011;59898;52.786;6.892;2023-01-16T07:18:04;9.27;;;5.18;;
52668;SDS011;59898;52.786;6.892;2023-01-16T07:21:44;10.13;;;5.50;;
52668;SDS011;59898;52.786;6.892;2023-01-16T07:25:29;8.48;;;5.20;;
52668;SDS011;59898;52.786;6.892;2023-01-16T07:28:53;9.90;;;5.60;;
52668;SDS011;59898;52.786;6.892;2023-01-16T07:32:17;7.18;;;4.88;;
52668;SDS011;59898;52.786;6.892;2023-01-16T07:35:38;9.32;;;5.55;;
52668;SDS011;59898;52.786;6.892;2023-01-16T07:38:58;10.55;;;4.85;;
52668;SDS011;59898;52.786;6.892;2023-01-16T07:42:19;11.52;;;6.20;;
52668;SDS011;59898;52.786;6.892;2023-01-16T07:45:40;15.27;;;5.60;;
52668;SDS011;59898;52.786;6.892;2023-01-16T07:49:01;9.13;;;5.18;;
52668;SDS011;59898;52.786;6.892;2023-01-16T07:52:21;7.90;;;5.20;;
52668;SDS011;59898;52.786;6.892;2023-01-16T07:55:42;9.20;;;5.38;;
52668;SDS011;59898;52.786;6.892;2023-01-16T07:59:03;13.60;;;5.70;;
52668;SDS011;59898;52.786;6.892;2023-01-16T08:02:23;15.50;;;5.88;;
52668;SDS011;59898;52.786;6.892;2023-01-16T08:05:44;11.45;;;6.75;;
52668;SDS011;59898;52.786;6.892;2023-01-16T08:09:05;6.63;;;4.90;;
52668;SDS011;59898;52.786;6.892;2023-01-16T08:12:26;10.70;;;5.72;;
52668;SDS011;59898;52.786;6.892;2023-01-16T08:15:46;8.38;;;5.22;;
52668;SDS011;59898;52.786;6.892;2023-01-16T08:19:07;9.18;;;5.25;;
52668;SDS011;59898;52.786;6.892;2023-01-16T08:22:28;9.88;;;4.45;;
52668;SDS011;59898;52.786;6.892;2023-01-16T08:25:49;7.05;;;4.30;;
52668;SDS011;59898;52.786;6.892;2023-01-16T08:29:10;8.32;;;4.80;;
52668;SDS011;59898;52.786;6.892;2023-01-16T08:32:30;6.72;;;4.78;;
52668;SDS011;59898;52.786;6.892;2023-01-16T08:35:51;16.40;;;4.28;;
52668;SDS011;59898;52.786;6.892;2023-01-16T08:39:12;6.47;;;3.90;;
52668;SDS011;59898;52.786;6.892;2023-01-16T08:42:33;7.10;;;3.90;;
52668;SDS011;59898;52.786;6.892;2023-01-16T08:49:58;7.97;;;4.22;;
52668;SDS011;59898;52.786;6.892;2023-01-16T08:53:38;4.97;;;3.55;;
52668;SDS011;59898;52.786;6.892;2023-01-16T08:56:59;8.50;;;3.72;;
52668;SDS011;59898;52.786;6.892;2023-01-16T09:00:19;5.80;;;2.80;;
52668;SDS011;59898;52.786;6.892;2023-01-16T09:03:41;5.00;;;2.67;;
52668;SDS011;59898;52.786;6.892;2023-01-16T09:07:01;6.95;;;2.78;;
52668;SDS011;59898;52.786;6.892;2023-01-16T09:10:22;5.10;;;2.22;;
52668;SDS011;59898;52.786;6.892;2023-01-16T09:13:43;6.40;;;2.70;;
52668;SDS011;59898;52.786;6.892;2023-01-16T09:17:09;4.78;;;2.60;;
52668;SDS011;59898;52.786;6.892;2023-01-16T09:20:30;6.20;;;3.13;;
52668;SDS011;59898;52.786;6.892;2023-01-16T09:23:51;4.13;;;2.50;;
52668;SDS011;59898;52.786;6.892;2023-01-16T09:27:11;9.23;;;2.65;;
52668;SDS011;59898;52.786;6.892;2023-01-16T09:30:38;6.32;;;2.65;;
52668;SDS011;59898;52.786;6.892;2023-01-16T09:33:59;4.22;;;2.50;;
52668;SDS011;59898;52.786;6.892;2023-01-16T09:37:19;4.97;;;2.40;;
52668;SDS011;59898;52.786;6.892;2023-01-16T09:40:43;5.15;;;2.13;;
52668;SDS011;59898;52.786;6.892;2023-01-16T09:44:10;4.05;;;2.03;;
52668;SDS011;59898;52.786;6.892;2023-01-16T09:47:34;5.25;;;2.78;;
52668;SDS011;59898;52.786;6.892;2023-01-16T09:51:06;6.03;;;2.33;;
52668;SDS011;59898;52.786;6.892;2023-01-16T09:54:33;4.82;;;2.17;;
52668;SDS011;59898;52.786;6.892;2023-01-16T09:58:19;3.65;;;2.40;;
52668;SDS011;59898;52.786;6.892;2023-01-16T10:02:02;5.28;;;2.17;;
52668;SDS011;59898;52.786;6.892;2023-01-16T10:05:44;6.00;;;2.92;;
52668;SDS011;59898;52.786;6.892;2023-01-16T10:09:32;4.43;;;2.42;;
52668;SDS011;59898;52.786;6.892;2023-01-16T10:13:05;5.75;;;2.65;;
52668;SDS011;59898;52.786;6.892;2023-01-16T10:23:39;3.83;;;2.28;;
52668;SDS011;59898;52.786;6.892;2023-01-16T10:27:13;4.28;;;2.67;;
52668;SDS011;59898;52.786;6.892;2023-01-16T10:34:23;4.63;;;2.45;;
52668;SDS011;59898;52.786;6.892;2023-01-16T10:37:51;3.97;;;2.53;;
52668;SDS011;59898;52.786;6.892;2023-01-16T10:41:30;2.78;;;2.13;;
52668;SDS011;59898;52.786;6.892;2023-01-16T10:45:25;4.35;;;2.58;;
52668;SDS011;59898;52.786;6.892;2023-01-16T10:49:09;6.43;;;2.92;;
52668;SDS011;59898;52.786;6.892;2023-01-16T10:52:48;3.70;;;2.50;;
52668;SDS011;59898;52.786;6.892;2023-01-16T10:56:09;4.72;;;2.50;;
52668;SDS011;59898;52.786;6.892;2023-01-16T10:59:30;4.10;;;2.28;;
52668;SDS011;59898;52.786;6.892;2023-01-16T11:02:52;6.17;;;2.90;;
52668;SDS011;59898;52.786;6.892;2023-01-16T11:06:17;3.33;;;2.37;;
52668;SDS011;59898;52.786;6.892;2023-01-16T11:09:38;8.00;;;3.15;;
52668;SDS011;59898;52.786;6.892;2023-01-16T11:12:59;4.88;;;2.47;;
52668;SDS011;59898;52.786;6.892;2023-01-16T11:16:39;4.75;;;2.33;;
52668;SDS011;59898;52.786;6.892;2023-01-16T11:20:25;7.38;;;2.35;;
52668;SDS011;59898;52.786;6.892;2023-01-16T11:23:52;3.53;;;2.30;;
52668;SDS011;59898;52.786;6.892;2023-01-16T11:27:20;5.53;;;3.42;;
52668;SDS011;59898;52.786;6.892;2023-01-16T11:34:10;4.72;;;2.40;;
52668;SDS011;59898;52.786;6.892;2023-01-16T11:37:34;4.63;;;2.70;;
52668;SDS011;59898;52.786;6.892;2023-01-16T11:40:56;4.10;;;2.40;;
52668;SDS011;59898;52.786;6.892;2023-01-16T11:44:23;6.47;;;2.38;;
52668;SDS011;59898;52.786;6.892;2023-01-16T11:48:04;3.05;;;2.30;;
52668;SDS011;59898;52.786;6.892;2023-01-16T11:51:48;3.30;;;2.10;;
52668;SDS011;59898;52.786;6.892;2023-01-16T11:55:13;4.95;;;2.58;;
52668;SDS011;59898;52.786;6.892;2023-01-16T11:58:44;11.00;;;4.32;;
52668;SDS011;59898;52.786;6.892;2023-01-16T12:13:07;5.43;;;3.40;;
52668;SDS011;59898;52.786;6.892;2023-01-16T12:16:50;4.78;;;2.58;;
52668;SDS011;59898;52.786;6.892;2023-01-16T12:20:19;4.97;;;2.80;;
52668;SDS011;59898;52.786;6.892;2023-01-16T12:32:47;5.63;;;2.85;;
52668;SDS011;59898;52.786;6.892;2023-01-16T12:43:37;6.18;;;2.25;;
52668;SDS011;59898;52.786;6.892;2023-01-16T12:54:53;6.45;;;2.55;;
52668;SDS011;59898;52.786;6.892;2023-01-16T12:58:25;7.03;;;3.50;;
52668;SDS011;59898;52.786;6.892;2023-01-16T13:02:01;3.53;;;2.75;;
52668;SDS011;59898;52.786;6.892;2023-01-16T13:05:33;3.00;;;1.90;;
52668;SDS011;59898;52.786;6.892;2023-01-16T13:08:57;5.53;;;3.53;;
52668;SDS011;59898;52.786;6.892;2023-01-16T13:12:26;5.18;;;2.90;;
52668;SDS011;59898;52.786;6.892;2023-01-16T13:16:20;4.80;;;2.60;;
52668;SDS011;59898;52.786;6.892;2023-01-16T13:19:47;2.75;;;2.08;;
52668;SDS011;59898;52.786;6.892;2023-01-16T13:23:19;6.07;;;2.47;;
52668;SDS011;59898;52.786;6.892;2023-01-16T13:26:44;3.47;;;2.25;;
52668;SDS011;59898;52.786;6.892;2023-01-16T13:30:13;6.40;;;2.65;;
52668;SDS011;59898;52.786;6.892;2023-01-16T13:33:40;4.85;;;2.42;;
52668;SDS011;59898;52.786;6.892;2023-01-16T13:43:59;5.28;;;3.22;;
52668;SDS011;59898;52.786;6.892;2023-01-16T13:48:00;9.30;;;4.72;;
52668;SDS011;59898;52.786;6.892;2023-01-16T13:51:21;6.75;;;3.47;;
52668;SDS011;59898;52.786;6.892;2023-01-16T13:54:45;5.32;;;2.70;;
52668;SDS011;59898;52.786;6.892;2023-01-16T14:08:26;6.20;;;3.35;;
52668;SDS011;59898;52.786;6.892;2023-01-16T14:12:24;5.88;;;3.65;;
52668;SDS011;59898;52.786;6.892;2023-01-16T14:15:54;8.05;;;3.05;;
52668;SDS011;59898;52.786;6.892;2023-01-16T14:19:41;4.75;;;2.03;;
52668;SDS011;59898;52.786;6.892;2023-01-16T14:23:02;3.42;;;2.60;;
52668;SDS011;59898;52.786;6.892;2023-01-16T14:26:44;5.00;;;2.22;;
52668;SDS011;59898;52.786;6.892;2023-01-16T14:30:14;5.40;;;3.05;;
52668;SDS011;59898;52.786;6.892;2023-01-16T14:33:41;5.32;;;2.42;;
52668;SDS011;59898;52.786;6.892;2023-01-16T14:37:10;4.50;;;2.45;;
52668;SDS011;59898;52.786;6.892;2023-01-16T14:40:36;3.47;;;2.10;;
52668;SDS011;59898;52.786;6.892;2023-01-16T14:44:19;4.60;;;2.60;;
52668;SDS011;59898;52.786;6.892;2023-01-16T14:51:59;5.32;;;3.17;;
52668;SDS011;59898;52.786;6.892;2023-01-16T15:06:08;6.40;;;2.78;;
52668;SDS011;59898;52.786;6.892;2023-01-16T15:09:30;4.03;;;2.33;;
52668;SDS011;59898;52.786;6.892;2023-01-16T15:12:51;3.58;;;2.65;;
52668;SDS011;59898;52.786;6.892;2023-01-16T15:16:17;5.05;;;3.33;;
52668;SDS011;59898;52.786;6.892;2023-01-16T15:23:45;3.42;;;2.17;;
52668;SDS011;59898;52.786;6.892;2023-01-16T15:27:07;4.07;;;2.30;;
52668;SDS011;59898;52.786;6.892;2023-01-16T15:30:34;2.88;;;2.13;;
52668;SDS011;59898;52.786;6.892;2023-01-16T15:37:46;2.78;;;1.88;;
52668;SDS011;59898;52.786;6.892;2023-01-16T15:41:11;3.53;;;2.10;;
52668;SDS011;59898;52.786;6.892;2023-01-16T15:44:33;5.70;;;2.40;;
52668;SDS011;59898;52.786;6.892;2023-01-16T15:52:11;2.85;;;2.55;;
52668;SDS011;59898;52.786;6.892;2023-01-16T15:55:36;3.47;;;1.92;;
52668;SDS011;59898;52.786;6.892;2023-01-16T15:59:28;4.63;;;2.58;;
52668;SDS011;59898;52.786;6.892;2023-01-16T16:06:31;8.70;;;4.35;;
52668;SDS011;59898;52.786;6.892;2023-01-16T16:09:59;6.63;;;3.72;;
52668;SDS011;59898;52.786;6.892;2023-01-16T16:16:42;4.32;;;3.00;;
52668;SDS011;59898;52.786;6.892;2023-01-16T16:20:42;5.30;;;3.33;;
52668;SDS011;59898;52.786;6.892;2023-01-16T16:24:06;5.75;;;3.58;;
52668;SDS011;59898;52.786;6.892;2023-01-16T16:27:31;4.95;;;3.33;;
52668;SDS011;59898;52.786;6.892;2023-01-16T16:30:57;4.45;;;3.00;;
52668;SDS011;59898;52.786;6.892;2023-01-16T16:34:21;5.22;;;3.67;;
52668;SDS011;59898;52.786;6.892;2023-01-16T16:37:47;3.63;;;2.95;;
52668;SDS011;59898;52.786;6.892;2023-01-16T16:44:35;4.80;;;3.50;;
52668;SDS011;59898;52.786;6.892;2023-01-16T16:48:31;5.35;;;4.05;;
52668;SDS011;59898;52.786;6.892;2023-01-16T16:51:48;5.07;;;3.35;;
52668;SDS011;59898;52.786;6.892;2023-01-16T16:55:25;8.10;;;4.45;;
52668;SDS011;59898;52.786;6.892;2023-01-16T16:58:48;7.50;;;4.22;;
52668;SDS011;59898;52.786;6.892;2023-01-16T17:02:10;6.10;;;4.00;;
52668;SDS011;59898;52.786;6.892;2023-01-16T17:05:32;9.52;;;5.90;;
52668;SDS011;59898;52.786;6.892;2023-01-16T17:08:53;7.45;;;5.05;;
52668;SDS011;59898;52.786;6.892;2023-01-16T17:12:16;6.15;;;4.22;;
52668;SDS011;59898;52.786;6.892;2023-01-16T17:15:39;5.05;;;4.22;;
52668;SDS011;59898;52.786;6.892;2023-01-16T17:19:12;6.47;;;4.85;;
52668;SDS011;59898;52.786;6.892;2023-01-16T17:22:39;7.38;;;5.30;;
52668;SDS011;59898;52.786;6.892;2023-01-16T17:25:59;8.00;;;6.28;;
52668;SDS011;59898;52.786;6.892;2023-01-16T17:29:20;7.85;;;5.93;;
52668;SDS011;59898;52.786;6.892;2023-01-16T17:32:41;9.77;;;6.75;;
52668;SDS011;59898;52.786;6.892;2023-01-16T17:36:02;9.57;;;5.93;;
52668;SDS011;59898;52.786;6.892;2023-01-16T17:39:29;13.60;;;6.88;;
52668;SDS011;59898;52.786;6.892;2023-01-16T17:42:50;13.35;;;7.18;;
52668;SDS011;59898;52.786;6.892;2023-01-16T17:46:29;10.73;;;6.60;;
52668;SDS011;59898;52.786;6.892;2023-01-16T17:49:50;9.90;;;6.32;;
52668;SDS011;59898;52.786;6.892;2023-01-16T17:53:29;8.07;;;6.22;;
52668;SDS011;59898;52.786;6.892;2023-01-16T17:56:51;7.47;;;5.22;;
52668;SDS011;59898;52.786;6.892;2023-01-16T18:00:12;7.15;;;5.22;;
52668;SDS011;59898;52.786;6.892;2023-01-16T18:03:33;7.25;;;4.72;;
52668;SDS011;59898;52.786;6.892;2023-01-16T18:06:54;6.38;;;5.32;;
52668;SDS011;59898;52.786;6.892;2023-01-16T18:10:14;7.82;;;5.97;;
52668;SDS011;59898;52.786;6.892;2023-01-16T18:13:35;6.53;;;5.25;;
52668;SDS011;59898;52.786;6.892;2023-01-16T18:17:16;6.28;;;5.00;;
52668;SDS011;59898;52.786;6.892;2023-01-16T18:20:46;7.13;;;5.60;;
52668;SDS011;59898;52.786;6.892;2023-01-16T18:24:31;9.13;;;6.78;;
52668;SDS011;59898;52.786;6.892;2023-01-16T18:28:02;8.85;;;6.03;;
52668;SDS011;59898;52.786;6.892;2023-01-16T18:31:23;10.18;;;7.15;;
52668;SDS011;59898;52.786;6.892;2023-01-16T18:34:43;10.05;;;6.95;;
52668;SDS011;59898;52.786;6.892;2023-01-16T18:38:05;7.38;;;6.32;;
52668;SDS011;59898;52.786;6.892;2023-01-16T18:41:45;9.07;;;7.07;;
52668;SDS011;59898;52.786;6.892;2023-01-16T18:45:24;8.40;;;6.82;;
52668;SDS011;59898;52.786;6.892;2023-01-16T18:49:04;6.82;;;5.45;;
52668;SDS011;59898;52.786;6.892;2023-01-16T18:52:43;10.52;;;8.50;;
52668;SDS011;59898;52.786;6.892;2023-01-16T18:56:30;8.32;;;7.10;;
52668;SDS011;59898;52.786;6.892;2023-01-16T19:00:15;10.77;;;7.70;;
52668;SDS011;59898;52.786;6.892;2023-01-16T19:03:55;9.98;;;7.88;;
52668;SDS011;59898;52.786;6.892;2023-01-16T19:07:16;8.38;;;7.20;;
52668;SDS011;59898;52.786;6.892;2023-01-16T19:10:42;9.30;;;7.13;;
52668;SDS011;59898;52.786;6.892;2023-01-16T19:14:03;9.38;;;7.97;;
52668;SDS011;59898;52.786;6.892;2023-01-16T19:17:23;10.82;;;7.55;;
52668;SDS011;59898;52.786;6.892;2023-01-16T19:20:44;12.43;;;10.00;;
52668;SDS011;59898;52.786;6.892;2023-01-16T19:24:06;11.02;;;8.75;;
52668;SDS011;59898;52.786;6.892;2023-01-16T19:27:34;10.80;;;9.40;;
52668;SDS011;59898;52.786;6.892;2023-01-16T19:30:54;10.18;;;8.85;;
52668;SDS011;59898;52.786;6.892;2023-01-16T19:34:15;10.57;;;8.48;;
52668;SDS011;59898;52.786;6.892;2023-01-16T19:37:36;10.77;;;8.68;;
52668;SDS011;59898;52.786;6.892;2023-01-16T19:41:04;11.43;;;8.93;;
52668;SDS011;59898;52.786;6.892;2023-01-16T19:44:46;10.98;;;8.93;;
52668;SDS011;59898;52.786;6.892;2023-01-16T19:48:25;10.52;;;9.10;;
52668;SDS011;59898;52.786;6.892;2023-01-16T19:51:46;12.13;;;9.07;;
52668;SDS011;59898;52.786;6.892;2023-01-16T19:55:06;10.07;;;8.43;;
52668;SDS011;59898;52.786;6.892;2023-01-16T19:58:27;12.52;;;9.27;;
52668;SDS011;59898;52.786;6.892;2023-01-16T20:01:58;12.30;;;9.95;;
52668;SDS011;59898;52.786;6.892;2023-01-16T20:05:20;12.45;;;9.13;;
52668;SDS011;59898;52.786;6.892;2023-01-16T20:08:41;14.80;;;11.38;;
52668;SDS011;59898;52.786;6.892;2023-01-16T20:12:03;12.73;;;10.32;;
52668;SDS011;59898;52.786;6.892;2023-01-16T20:15:42;13.57;;;9.95;;
52668;SDS011;59898;52.786;6.892;2023-01-16T20:19:03;13.77;;;11.13;;
52668;SDS011;59898;52.786;6.892;2023-01-16T20:22:24;13.57;;;9.85;;
52668;SDS011;59898;52.786;6.892;2023-01-16T20:25:45;15.38;;;12.48;;
52668;SDS011;59898;52.786;6.892;2023-01-16T20:29:06;15.50;;;11.57;;
52668;SDS011;59898;52.786;6.892;2023-01-16T20:32:26;15.60;;;12.80;;
52668;SDS011;59898;52.786;6.892;2023-01-16T20:35:48;18.88;;;13.45;;
52668;SDS011;59898;52.786;6.892;2023-01-16T20:39:09;19.25;;;14.05;;
52668;SDS011;59898;52.786;6.892;2023-01-16T20:42:30;18.55;;;14.07;;
52668;SDS011;59898;52.786;6.892;2023-01-16T20:46:09;16.33;;;13.50;;
52668;SDS011;59898;52.786;6.892;2023-01-16T20:49:29;17.85;;;14.25;;
52668;SDS011;59898;52.786;6.892;2023-01-16T20:52:50;17.73;;;13.93;;
52668;SDS011;59898;52.786;6.892;2023-01-16T20:56:11;17.50;;;13.68;;
52668;SDS011;59898;52.786;6.892;2023-01-16T20:59:32;18.73;;;13.05;;
52668;SDS011;59898;52.786;6.892;2023-01-16T21:02:53;18.65;;;14.43;;
52668;SDS011;59898;52.786;6.892;2023-01-16T21:06:15;23.45;;;15.48;;
52668;SDS011;59898;52.786;6.892;2023-01-16T21:09:35;15.95;;;12.63;;
52668;SDS011;59898;52.786;6.892;2023-01-16T21:12:56;9.77;;;7.50;;
52668;SDS011;59898;52.786;6.892;2023-01-16T21:16:45;7.22;;;5.30;;
52668;SDS011;59898;52.786;6.892;2023-01-16T21:20:27;6.32;;;4.95;;
52668;SDS011;59898;52.786;6.892;2023-01-16T21:24:06;8.15;;;4.43;;
52668;SDS011;59898;52.786;6.892;2023-01-16T21:27:28;7.38;;;5.05;;
52668;SDS011;59898;52.786;6.892;2023-01-16T21:30:51;7.78;;;5.18;;
52668;SDS011;59898;52.786;6.892;2023-01-16T21:34:12;6.78;;;4.97;;
52668;SDS011;59898;52.786;6.892;2023-01-16T21:37:32;15.73;;;10.82;;
52668;SDS011;59898;52.786;6.892;2023-01-16T21:40:54;6.30;;;4.55;;
52668;SDS011;59898;52.786;6.892;2023-01-16T21:44:15;6.15;;;4.45;;
52668;SDS011;59898;52.786;6.892;2023-01-16T21:47:55;6.53;;;4.18;;
52668;SDS011;59898;52.786;6.892;2023-01-16T21:51:27;5.28;;;4.30;;
52668;SDS011;59898;52.786;6.892;2023-01-16T21:54:49;7.05;;;5.28;;
52668;SDS011;59898;52.786;6.892;2023-01-16T21:58:09;7.30;;;5.15;;
52668;SDS011;59898;52.786;6.892;2023-01-16T22:01:30;6.13;;;4.72;;
52668;SDS011;59898;52.786;6.892;2023-01-16T22:04:51;6.80;;;5.10;;
52668;SDS011;59898;52.786;6.892;2023-01-16T22:08:12;8.68;;;5.68;;
52668;SDS011;59898;52.786;6.892;2023-01-16T22:11:32;10.70;;;6.32;;
52668;SDS011;59898;52.786;6.892;2023-01-16T22:15:12;8.18;;;5.28;;
52668;SDS011;59898;52.786;6.892;2023-01-16T22:18:51;8.27;;;5.68;;
52668;SDS011;59898;52.786;6.892;2023-01-16T22:22:11;28.52;;;17.27;;
52668;SDS011;59898;52.786;6.892;2023-01-16T22:25:32;8.10;;;6.15;;
52668;SDS011;59898;52.786;6.892;2023-01-16T22:28:53;11.38;;;6.72;;
52668;SDS011;59898;52.786;6.892;2023-01-16T22:32:14;10.40;;;7.45;;
52668;SDS011;59898;52.786;6.892;2023-01-16T22:35:34;10.13;;;7.70;;
52668;SDS011;59898;52.786;6.892;2023-01-16T22:38:55;11.75;;;7.75;;
52668;SDS011;59898;52.786;6.892;2023-01-16T22:42:17;14.32;;;8.27;;
52668;SDS011;59898;52.786;6.892;2023-01-16T22:45:38;11.35;;;9.27;;
52668;SDS011;59898;52.786;6.892;2023-01-16T22:49:17;12.82;;;9.55;;
52668;SDS011;59898;52.786;6.892;2023-01-16T22:52:38;12.00;;;10.25;;
52668;SDS011;59898;52.786;6.892;2023-01-16T22:55:58;11.80;;;8.55;;
52668;SDS011;59898;52.786;6.892;2023-01-16T22:59:21;12.57;;;9.65;;
52668;SDS011;59898;52.786;6.892;2023-01-16T23:02:42;10.20;;;8.32;;
52668;SDS011;59898;52.786;6.892;2023-01-16T23:06:02;9.35;;;7.10;;
52668;SDS011;59898;52.786;6.892;2023-01-16T23:09:23;7.15;;;6.30;;
52668;SDS011;59898;52.786;6.892;2023-01-16T23:12:44;8.80;;;5.32;;